Terminal Aerodrome Forecast
Issued by NWS Atlanta, GA

Home | Current Version | Previous Version | Text Only | Print | Product List | Glossary On
Versions: 1 2 3 4 5 6 7 8 9 10 11 12 13 14 15 16 17 18 19 20 21 22 23 24 25 26 27 28 29 30 31 32 33 34 35 36 37 38 39 40 41
000
FTUS42 KFFC 241541 AAD
TAFATL
TAF AMD
KATL 241541Z 2416/2518 13008KT P6SM SCT025 BKN045
      TEMPO 2416/2418 BKN025
     FM241900 11012G19KT P6SM SCT060
     FM250100 11010KT P6SM FEW080
     FM250800 13010KT P6SM FEW008 BKN012
     FM251600 14007KT P6SM VCSH OVC012=

USA.gov is the U.S. government's official web portal to all federal, state and local government web resources and services.